Time;durP1;ratioP1;P1;durP2;ratioP2;P2;SDS_P1;SDS_P2;PMS_P1;PMS_P2;Temp;Humidity;BMP_temperature;BMP_pressure;BME280_temperature;BME280_humidity;BME280_pressure;Samples;Min_cycle;Max_cycle;Signal;HPM_P1;HPM_P2
2023/11/25 00:04:00;;;;;;;6.53;1.50;;;1.60;99.90;;;;;;15252316;23;20025;-82
2023/11/25 00:10:04;;;;;;;4.05;1.40;;;1.60;99.90;;;;;;15248788;23;20025;-82
2023/11/25 00:16:08;;;;;;;6.00;1.53;;;1.60;99.90;;;;;;15248914;23;20029;-81
2023/11/25 00:22:10;;;;;;;5.35;1.60;;;1.70;99.90;;;;;;15247163;23;20358;-82
2023/11/25 00:28:12;;;;;;;7.25;1.75;;;1.80;99.90;;;;;;15246691;23;20318;-82
2023/11/25 00:34:14;;;;;;;4.63;1.90;;;1.60;99.90;;;;;;15248065;23;20560;-84
2023/11/25 00:40:16;;;;;;;6.60;1.50;;;1.70;99.90;;;;;;15249168;23;20150;-84
2023/11/25 00:46:19;;;;;;;5.55;1.70;;;1.60;99.90;;;;;;15251726;23;20030;-82
2023/11/25 00:52:22;;;;;;;9.38;2.40;;;1.80;99.90;;;;;;15247188;23;20029;-82
2023/11/25 00:58:23;;;;;;;6.07;1.65;;;1.80;99.90;;;;;;15251743;23;20029;-82
2023/11/25 01:04:25;;;;;;;7.03;2.05;;;1.90;99.90;;;;;;15247664;23;20098;-81
2023/11/25 01:10:28;;;;;;;4.15;1.92;;;1.90;99.90;;;;;;15249631;23;20475;-82
2023/11/25 01:16:30;;;;;;;7.00;1.90;;;1.80;99.90;;;;;;15248774;23;20036;-81
2023/11/25 01:22:32;;;;;;;8.65;2.28;;;2.00;99.90;;;;;;15246373;23;20036;-81
2023/11/25 01:28:37;;;;;;;8.82;1.98;;;2.10;99.90;;;;;;15248070;23;20468;-81
2023/11/25 01:34:39;;;;;;;4.30;1.77;;;2.00;99.90;;;;;;15245991;23;20044;-81
2023/11/25 01:40:41;;;;;;;7.47;2.35;;;2.00;99.90;;;;;;15247681;23;20037;-82
2023/11/25 01:46:44;;;;;;;4.07;2.00;;;1.90;99.90;;;;;;15253350;23;20025;-84
2023/11/25 01:52:47;;;;;;;6.05;2.20;;;2.00;99.90;;;;;;15251677;23;20022;-84
2023/11/25 01:58:49;;;;;;;3.38;2.28;;;2.00;99.90;;;;;;15249190;23;20447;-82
2023/11/25 02:04:52;;;;;;;8.40;2.35;;;1.90;99.90;;;;;;15255056;23;20026;-82
2023/11/25 02:10:54;;;;;;;3.38;2.45;;;1.90;99.90;;;;;;15252045;23;20048;-82
2023/11/25 02:16:56;;;;;;;7.30;2.88;;;1.70;99.90;;;;;;15252957;23;20489;-82
2023/11/25 02:22:59;;;;;;;8.10;3.33;;;1.70;99.90;;;;;;15252659;23;20025;-82
2023/11/25 02:29:01;;;;;;;4.43;2.80;;;1.60;99.90;;;;;;15247982;23;20029;-82
2023/11/25 02:35:03;;;;;;;6.68;3.70;;;1.50;99.90;;;;;;15247221;23;20025;-82
2023/11/25 02:41:05;;;;;;;6.93;3.40;;;1.50;99.90;;;;;;15253635;23;20033;-82
2023/11/25 02:47:08;;;;;;;7.20;3.17;;;1.40;99.90;;;;;;15247897;23;20442;-82
2023/11/25 02:53:10;;;;;;;6.15;3.15;;;1.40;99.90;;;;;;15245729;23;20103;-82
2023/11/25 02:59:12;;;;;;;8.60;3.30;;;1.50;99.90;;;;;;15250242;23;20026;-85
2023/11/25 03:05:16;;;;;;;5.03;3.33;;;1.60;99.90;;;;;;15245682;23;20029;-82
2023/11/25 03:11:21;;;;;;;8.17;3.60;;;1.60;99.90;;;;;;15250121;23;20022;-82
2023/11/25 03:17:23;;;;;;;5.90;3.03;;;1.60;99.90;;;;;;15252472;23;20486;-81
2023/11/25 03:23:25;;;;;;;4.82;3.05;;;1.80;99.90;;;;;;15255353;23;20116;-82
2023/11/25 03:29:27;;;;;;;3.42;3.08;;;2.00;99.90;;;;;;15250657;23;20459;-82
2023/11/25 03:35:31;;;;;;;4.70;3.38;;;1.70;99.90;;;;;;15251572;23;20033;-82
2023/11/25 03:41:34;;;;;;;4.70;2.75;;;1.70;99.90;;;;;;15256321;23;20029;-82
2023/11/25 03:47:36;;;;;;;4.25;2.88;;;1.80;99.90;;;;;;15255206;23;20040;-82
2023/11/25 03:53:38;;;;;;;7.78;3.00;;;1.90;99.90;;;;;;15248881;23;20112;-82
2023/11/25 03:59:40;;;;;;;4.68;2.72;;;2.10;99.90;;;;;;15239171;23;20471;-81
2023/11/25 04:05:42;;;;;;;4.25;3.40;;;2.10;99.90;;;;;;15250269;23;20462;-83
2023/11/25 04:11:44;;;;;;;7.43;3.97;;;2.00;99.90;;;;;;15254523;23;20021;-82
2023/11/25 04:17:46;;;;;;;5.68;3.92;;;1.90;99.90;;;;;;15255917;23;20030;-82
2023/11/25 04:23:55;;;;;;;5.82;3.90;;;1.90;99.90;;;;;;15247108;23;20433;-82
2023/11/25 04:29:57;;;;;;;10.07;4.00;;;1.90;99.90;;;;;;15246242;23;20108;-82
2023/11/25 04:35:59;;;;;;;4.00;3.60;;;1.90;99.90;;;;;;15251113;23;20033;-82
2023/11/25 04:42:01;;;;;;;5.70;3.92;;;2.00;99.90;;;;;;15256822;23;20034;-83
2023/11/25 04:48:03;;;;;;;5.88;3.85;;;2.00;99.90;;;;;;15252503;23;20025;-81
2023/11/25 04:54:06;;;;;;;5.20;3.55;;;2.00;99.90;;;;;;15248685;23;20164;-83
2023/11/25 05:00:13;;;;;;;10.57;4.82;;;1.90;99.90;;;;;;15242344;23;20033;-82
2023/11/25 05:06:15;;;;;;;5.65;3.65;;;1.90;99.90;;;;;;15246399;23;20025;-82
2023/11/25 05:12:19;;;;;;;8.25;3.45;;;2.00;99.90;;;;;;15249448;23;20079;-83
2023/11/25 05:18:21;;;;;;;6.55;3.60;;;2.10;99.90;;;;;;15244607;23;20018;-85
2023/11/25 05:24:23;;;;;;;5.57;3.72;;;1.90;99.90;;;;;;15253506;23;20206;-83
2023/11/25 05:30:25;;;;;;;6.13;3.58;;;2.00;99.90;;;;;;15243966;23;20820;-84
2023/11/25 05:36:27;;;;;;;6.78;4.10;;;1.90;99.90;;;;;;15248042;23;20025;-84
2023/11/25 05:42:30;;;;;;;6.07;3.55;;;1.90;99.90;;;;;;15245656;23;20025;-84
2023/11/25 05:48:32;;;;;;;9.77;3.90;;;2.00;99.90;;;;;;15249809;23;20026;-84
2023/11/25 05:54:34;;;;;;;6.30;3.85;;;2.00;99.90;;;;;;15248800;23;20029;-83
2023/11/25 06:00:36;;;;;;;4.15;3.33;;;2.10;99.90;;;;;;15249735;23;20467;-84
2023/11/25 06:06:38;;;;;;;7.78;3.20;;;2.30;99.90;;;;;;15249786;23;20053;-84
2023/11/25 06:12:41;;;;;;;8.65;3.72;;;2.30;99.90;;;;;;15239224;23;20393;-83
2023/11/25 06:18:43;;;;;;;5.28;3.15;;;2.30;99.90;;;;;;15249176;23;20057;-83
2023/11/25 06:24:45;;;;;;;6.82;2.92;;;2.30;99.90;;;;;;15253281;23;20140;-81
2023/11/25 06:30:52;;;;;;;7.55;3.08;;;2.30;99.90;;;;;;15247217;23;20052;-80
2023/11/25 06:36:53;;;;;;;9.93;2.83;;;2.40;99.90;;;;;;15247002;23;20475;-81
2023/11/25 06:42:55;;;;;;;5.70;2.40;;;2.60;99.90;;;;;;15248906;23;20022;-81
2023/11/25 06:48:57;;;;;;;9.77;3.20;;;2.60;99.90;;;;;;15248549;23;20034;-82
2023/11/25 06:55:00;;;;;;;8.98;3.15;;;2.50;99.90;;;;;;15250231;23;20032;-82
2023/11/25 07:01:04;;;;;;;8.43;2.47;;;2.60;99.90;;;;;;15248675;23;20036;-82
2023/11/25 07:07:07;;;;;;;7.47;2.90;;;2.60;99.90;;;;;;15251114;23;20507;-83
2023/11/25 07:13:09;;;;;;;5.80;2.40;;;2.70;99.90;;;;;;15246032;23;20021;-82
2023/11/25 07:19:11;;;;;;;12.98;2.70;;;2.70;99.90;;;;;;15247852;23;20037;-82
2023/11/25 07:25:13;;;;;;;6.75;3.22;;;2.70;99.90;;;;;;15250149;23;20029;-81
2023/11/25 07:31:15;;;;;;;6.53;2.40;;;2.70;99.90;;;;;;15243227;23;20025;-82
2023/11/25 07:37:17;;;;;;;7.78;2.25;;;2.80;99.90;;;;;;15243331;23;20026;-83
2023/11/25 07:43:19;;;;;;;5.47;2.35;;;2.80;99.90;;;;;;15245068;23;20022;-85
2023/11/25 07:49:21;;;;;;;6.55;2.40;;;2.80;99.90;;;;;;15236055;23;20027;-82
2023/11/25 07:55:24;;;;;;;7.80;2.42;;;2.80;99.90;;;;;;15248878;23;20018;-83
2023/11/25 08:01:26;;;;;;;9.02;2.72;;;2.90;99.90;;;;;;15248538;23;20029;-83
2023/11/25 08:07:28;;;;;;;9.05;2.83;;;2.80;99.90;;;;;;15251203;23;20029;-83
2023/11/25 08:13:30;;;;;;;4.50;2.25;;;3.00;99.90;;;;;;15255322;23;20028;-83
2023/11/25 08:19:32;;;;;;;5.88;3.28;;;3.10;99.90;;;;;;15251986;23;20542;-82
2023/11/25 08:25:34;;;;;;;4.90;2.72;;;3.20;99.90;;;;;;15257060;23;20026;-83
2023/11/25 08:31:36;;;;;;;5.53;2.72;;;3.20;99.90;;;;;;15248914;23;20026;-82
2023/11/25 08:37:39;;;;;;;8.35;2.90;;;3.10;99.90;;;;;;15238732;23;20025;-84
2023/11/25 08:43:43;;;;;;;5.18;2.80;;;3.00;99.90;;;;;;15253485;23;20026;-82
2023/11/25 08:49:46;;;;;;;3.17;2.60;;;3.00;99.90;;;;;;15249879;22;20021;-82
2023/11/25 08:55:48;;;;;;;10.10;2.85;;;3.00;99.90;;;;;;15256282;23;20021;-84
2023/11/25 09:01:53;;;;;;;4.32;3.20;;;2.90;99.90;;;;;;15254094;23;20071;-82
2023/11/25 09:07:55;;;;;;;;;;;3.00;99.90;;;;;;15256200;23;20104;-83
2023/11/25 09:13:58;;;;;;;9.82;2.97;;;3.10;99.90;;;;;;15247232;23;19924;-83
2023/11/25 09:20:00;;;;;;;6.43;3.20;;;3.20;99.90;;;;;;15248326;23;20029;-83
2023/11/25 09:26:02;;;;;;;3.85;2.88;;;3.10;99.90;;;;;;15251778;23;20087;-83
2023/11/25 09:32:04;;;;;;;4.88;4.13;;;3.30;99.90;;;;;;15248564;23;20462;-82
2023/11/25 09:38:07;;;;;;;5.80;3.30;;;3.40;99.90;;;;;;15254177;23;20021;-81
2023/11/25 09:44:10;;;;;;;8.80;4.50;;;3.60;99.90;;;;;;15251436;23;20022;-82
2023/11/25 09:50:13;;;;;;;5.55;3.17;;;3.60;99.90;;;;;;15255438;23;20033;-83
2023/11/25 09:56:16;;;;;;;6.75;3.53;;;3.80;99.90;;;;;;15254508;23;20053;-82
2023/11/25 10:02:19;;;;;;;10.32;4.57;;;3.80;99.90;;;;;;15270353;23;20030;-82
2023/11/25 10:08:22;;;;;;;6.05;4.63;;;3.70;99.90;;;;;;15254719;23;20029;-83
2023/11/25 10:14:27;;;;;;;5.53;4.35;;;3.60;99.90;;;;;;15247381;23;20368;-83
2023/11/25 10:20:30;;;;;;;4.50;3.63;;;3.60;99.90;;;;;;15238324;23;20026;-83
2023/11/25 10:26:32;;;;;;;4.53;3.88;;;3.80;99.90;;;;;;15242668;23;20031;-84
2023/11/25 10:32:35;;;;;;;3.92;3.63;;;3.80;99.90;;;;;;15234725;23;20029;-86
2023/11/25 10:38:41;;;;;;;4.28;3.80;;;3.90;99.90;;;;;;15239002;23;20025;-84
2023/11/25 10:44:44;;;;;;;3.17;2.60;;;4.00;99.90;;;;;;15238871;23;20607;-82
2023/11/25 10:50:46;;;;;;;3.70;3.00;;;4.10;99.90;;;;;;15228856;23;20017;-86
2023/11/25 10:56:48;;;;;;;3.92;3.30;;;4.20;99.90;;;;;;15229128;23;20486;-85
2023/11/25 11:02:55;;;;;;;4.35;3.10;;;4.30;99.90;;;;;;15233548;23;20029;-85
2023/11/25 11:09:03;;;;;;;4.32;3.35;;;4.20;99.90;;;;;;15237406;23;20107;-84
2023/11/25 11:15:10;;;;;;;4.53;3.55;;;4.10;99.90;;;;;;15233503;23;20124;-84
2023/11/25 11:21:14;;;;;;;3.53;3.20;;;4.10;99.90;;;;;;15235080;23;20025;-84
2023/11/25 11:27:34;;;;;;;3.45;2.72;;;4.10;99.90;;;;;;15213020;23;20030;-86
2023/11/25 11:33:35;;;;;;;2.90;2.70;;;4.20;99.90;;;;;;15237296;23;20136;-85
2023/11/25 11:39:39;;;;;;;3.03;2.47;;;4.20;99.90;;;;;;15231800;23;20036;-86
2023/11/25 11:45:42;;;;;;;3.05;2.75;;;4.20;99.90;;;;;;15235815;23;20636;-85
2023/11/25 11:52:04;;;;;;;2.58;2.35;;;4.30;99.90;;;;;;15235867;23;20021;-85
2023/11/25 11:58:08;;;;;;;5.25;2.50;;;4.50;99.90;;;;;;15234557;23;20066;-85
2023/11/25 12:04:10;;;;;;;3.13;2.63;;;4.50;99.90;;;;;;15234782;23;20030;-84
2023/11/25 12:10:12;;;;;;;4.43;3.00;;;4.40;99.90;;;;;;15233758;23;20018;-86
2023/11/25 12:16:14;;;;;;;3.10;2.70;;;4.30;99.90;;;;;;15234571;23;20022;-83
2023/11/25 12:22:17;;;;;;;3.88;2.30;;;4.60;99.90;;;;;;15231536;23;20029;-84
2023/11/25 12:28:19;;;;;;;2.60;2.40;;;4.70;99.90;;;;;;15234230;23;20037;-84
2023/11/25 12:34:22;;;;;;;2.97;2.67;;;4.90;99.90;;;;;;15237170;23;20021;-83
2023/11/25 12:40:25;;;;;;;6.32;2.30;;;5.00;99.90;;;;;;15231019;23;20124;-83
2023/11/25 12:46:28;;;;;;;3.22;2.10;;;4.90;99.90;;;;;;15234721;23;20113;-84
2023/11/25 12:52:30;;;;;;;3.70;1.90;;;5.10;99.90;;;;;;15227215;23;20025;-83
2023/11/25 12:58:32;;;;;;;1.80;1.40;;;5.00;99.90;;;;;;15231884;23;20022;-83
2023/11/25 13:04:49;;;;;;;7.57;3.28;;;5.00;99.90;;;;;;15240025;23;20029;-83
2023/11/25 13:10:51;;;;;;;7.97;3.22;;;5.10;99.90;;;;;;15237566;23;20017;-83
2023/11/25 13:16:53;;;;;;;2.53;1.23;;;5.10;99.90;;;;;;15237750;23;20529;-83
2023/11/25 13:22:55;;;;;;;9.95;3.35;;;5.10;99.90;;;;;;15238735;23;20029;-83
2023/11/25 13:28:59;;;;;;;3.13;1.80;;;5.10;99.90;;;;;;15232499;23;20359;-85
2023/11/25 13:35:01;;;;;;;2.65;1.23;;;5.10;99.90;;;;;;15238954;23;20018;-84
2023/11/25 13:41:03;;;;;;;3.10;1.60;;;5.20;99.90;;;;;;15256588;23;20771;-85
2023/11/25 13:47:05;;;;;;;6.05;2.22;;;5.10;99.90;;;;;;15261813;23;20047;-84
2023/11/25 13:53:07;;;;;;;3.22;1.20;;;5.20;99.90;;;;;;15259911;22;20355;-86
2023/11/25 13:59:09;;;;;;;3.10;1.55;;;5.10;99.90;;;;;;15250740;23;20676;-86
2023/11/25 14:05:13;;;;;;;2.05;1.33;;;5.10;99.90;;;;;;15258730;23;20025;-86
2023/11/25 14:11:15;;;;;;;2.60;1.50;;;5.00;99.90;;;;;;15260689;23;20401;-84
2023/11/25 14:17:17;;;;;;;5.47;1.50;;;4.90;99.90;;;;;;15264614;23;20026;-85
2023/11/25 14:23:21;;;;;;;3.25;1.70;;;4.90;99.90;;;;;;15265420;23;20107;-85
2023/11/25 14:29:23;;;;;;;4.13;1.55;;;4.90;99.90;;;;;;15284434;23;20021;-85
2023/11/25 14:35:25;;;;;;;4.82;1.60;;;4.80;99.90;;;;;;15322857;23;20029;-83
2023/11/25 14:41:28;;;;;;;2.83;1.38;;;4.60;99.90;;;;;;15321274;23;20010;-83
2023/11/25 14:47:30;;;;;;;2.90;1.70;;;4.50;99.90;;;;;;15285842;22;20041;-82
2023/11/25 14:53:32;;;;;;;4.78;1.40;;;4.40;99.90;;;;;;15251649;23;20105;-82
2023/11/25 14:59:34;;;;;;;3.28;1.48;;;4.20;99.90;;;;;;15254450;23;20022;-83
2023/11/25 15:05:36;;;;;;;2.08;1.08;;;4.20;99.90;;;;;;15250706;23;20601;-83
2023/11/25 15:11:41;;;;;;;3.00;1.20;;;4.00;99.90;;;;;;15255247;23;20048;-82
2023/11/25 15:17:43;;;;;;;4.00;1.23;;;4.00;99.90;;;;;;15247728;23;20033;-83
2023/11/25 15:23:45;;;;;;;2.65;1.10;;;4.00;99.90;;;;;;15253159;23;20056;-82
2023/11/25 15:30:01;;;;;;;4.38;1.58;;;3.80;99.90;;;;;;15249747;23;20025;-83
2023/11/25 15:36:03;;;;;;;3.35;1.30;;;3.80;99.90;;;;;;15250211;23;20048;-83
2023/11/25 15:42:06;;;;;;;1.95;1.20;;;3.70;99.90;;;;;;15256532;23;20044;-83
2023/11/25 15:48:08;;;;;;;3.88;1.63;;;3.70;99.90;;;;;;15254346;23;20029;-86
2023/11/25 15:54:10;;;;;;;3.15;1.55;;;3.60;99.90;;;;;;15248362;23;20032;-83
2023/11/25 16:00:13;;;;;;;3.83;2.10;;;3.50;99.90;;;;;;15246016;23;20502;-83
2023/11/25 16:06:17;;;;;;;1.30;1.00;;;3.40;99.90;;;;;;15250204;23;20453;-82
2023/11/25 16:12:18;;;;;;;3.95;1.20;;;3.40;99.90;;;;;;15248571;23;20382;-82
2023/11/25 16:18:20;;;;;;;2.95;1.08;;;3.30;99.90;;;;;;15244074;23;20018;-83
2023/11/25 16:24:26;;;;;;;3.65;1.10;;;3.20;99.90;;;;;;15250523;23;20070;-82
2023/11/25 16:30:28;;;;;;;3.03;1.30;;;3.10;99.90;;;;;;15246395;23;20018;-82
2023/11/25 16:36:30;;;;;;;6.82;1.50;;;3.10;99.90;;;;;;15241976;23;20296;-83
2023/11/25 16:42:35;;;;;;;3.80;1.65;;;3.10;99.90;;;;;;15249452;23;20463;-82
2023/11/25 16:48:37;;;;;;;2.25;1.42;;;3.10;99.90;;;;;;15248011;23;20514;-82
2023/11/25 16:54:54;;;;;;;5.28;2.10;;;3.20;99.90;;;;;;15254681;23;20025;-86
2023/11/25 17:00:56;;;;;;;5.60;1.98;;;3.30;99.90;;;;;;15240546;23;20100;-86
2023/11/25 17:07:00;;;;;;;4.88;2.55;;;3.20;99.90;;;;;;15251304;23;20056;-85
2023/11/25 17:13:03;;;;;;;4.95;2.55;;;3.10;99.90;;;;;;15255326;23;20264;-85
2023/11/25 17:19:04;;;;;;;14.10;2.78;;;3.20;99.90;;;;;;15256210;23;20501;-85
2023/11/25 17:25:10;;;;;;;4.35;2.50;;;3.10;99.90;;;;;;15252306;23;20059;-85
2023/11/25 17:31:12;;;;;;;7.63;3.15;;;3.10;99.90;;;;;;15245245;23;20328;-85
2023/11/25 17:37:14;;;;;;;9.63;3.10;;;3.00;99.90;;;;;;15255063;23;20029;-85
2023/11/25 17:43:16;;;;;;;5.47;2.40;;;3.10;99.90;;;;;;15255056;23;20029;-85
2023/11/25 17:49:18;;;;;;;3.65;1.98;;;3.00;99.90;;;;;;15251818;23;20030;-86
2023/11/25 17:55:20;;;;;;;4.40;1.88;;;3.00;99.90;;;;;;15251748;23;20037;-84
2023/11/25 18:01:22;;;;;;;3.67;1.65;;;3.00;99.90;;;;;;15244905;23;20033;-85
2023/11/25 18:07:24;;;;;;;4.57;2.10;;;3.00;99.90;;;;;;15251674;23;20387;-86
2023/11/25 18:13:26;;;;;;;4.57;2.60;;;3.10;99.90;;;;;;15244927;23;20018;-86
2023/11/25 18:19:28;;;;;;;3.95;1.90;;;2.90;99.90;;;;;;15246483;23;20096;-87
2023/11/25 18:25:30;;;;;;;4.60;1.50;;;2.90;99.90;;;;;;15250116;23;20034;-85
2023/11/25 18:31:32;;;;;;;3.35;1.52;;;2.90;99.90;;;;;;15248476;23;20017;-84
2023/11/25 18:37:34;;;;;;;6.13;1.40;;;2.90;99.90;;;;;;15246099;23;20363;-85
2023/11/25 18:43:37;;;;;;;3.20;1.20;;;3.00;99.90;;;;;;15225624;23;20095;-84
2023/11/25 18:49:38;;;;;;;2.78;1.25;;;3.10;99.90;;;;;;15248050;23;20491;-85
2023/11/25 18:55:41;;;;;;;2.38;1.20;;;3.10;99.90;;;;;;15243835;23;20033;-86
2023/11/25 19:01:43;;;;;;;4.30;1.40;;;3.10;99.90;;;;;;15246324;23;20033;-85
2023/11/25 19:07:46;;;;;;;4.15;1.23;;;3.00;99.90;;;;;;15242594;23;20068;-86
2023/11/25 19:13:48;;;;;;;2.33;1.05;;;2.80;99.90;;;;;;15248801;23;20013;-85
2023/11/25 19:19:50;;;;;;;3.63;1.17;;;2.60;99.90;;;;;;15235008;23;20097;-83
2023/11/25 19:25:52;;;;;;;1.38;1.00;;;2.40;99.90;;;;;;15252289;23;20026;-82
2023/11/25 19:31:54;;;;;;;3.97;1.35;;;2.40;99.90;;;;;;15239778;23;20104;-82
2023/11/25 19:37:56;;;;;;;4.53;1.80;;;2.20;99.90;;;;;;15250850;23;20028;-82
2023/11/25 19:43:59;;;;;;;4.65;2.15;;;2.10;99.90;;;;;;15249081;23;20021;-83
2023/11/25 19:50:01;;;;;;;7.28;2.28;;;1.90;99.90;;;;;;15248308;23;20030;-82
2023/11/25 19:56:04;;;;;;;4.05;2.05;;;1.90;99.90;;;;;;15249703;23;20096;-82
2023/11/25 20:02:06;;;;;;;7.85;2.60;;;2.00;99.90;;;;;;15250493;23;20075;-82
2023/11/25 20:08:08;;;;;;;16.33;5.68;;;1.90;99.90;;;;;;15255719;23;20655;-82
2023/11/25 20:14:12;;;;;;;7.97;2.70;;;1.80;99.90;;;;;;15270052;23;20030;-81
2023/11/25 20:20:14;;;;;;;5.87;2.30;;;1.80;99.90;;;;;;15252183;23;20577;-82
2023/11/25 20:26:17;;;;;;;5.68;2.00;;;1.70;99.90;;;;;;15253929;23;20647;-85
2023/11/25 20:32:20;;;;;;;3.90;2.45;;;1.70;99.90;;;;;;15249004;23;20468;-85
2023/11/25 20:38:22;;;;;;;3.13;1.88;;;1.70;99.90;;;;;;15253066;23;20033;-85
2023/11/25 20:44:24;;;;;;;3.03;1.75;;;1.60;99.90;;;;;;15255622;23;20026;-85
2023/11/25 20:50:27;;;;;;;4.88;2.15;;;1.60;99.90;;;;;;15253425;23;20044;-85
2023/11/25 20:56:30;;;;;;;6.35;2.08;;;1.60;99.90;;;;;;15249199;23;20530;-85
2023/11/25 21:02:32;;;;;;;4.78;2.30;;;1.60;99.90;;;;;;15249296;23;20078;-85
2023/11/25 21:08:35;;;;;;;3.78;2.10;;;1.70;99.90;;;;;;15254820;23;20030;-84
2023/11/25 21:14:37;;;;;;;5.93;1.90;;;1.90;99.90;;;;;;15251077;23;20021;-85
2023/11/25 21:20:39;;;;;;;5.75;2.50;;;2.00;99.90;;;;;;15252532;23;20029;-85
2023/11/25 21:26:41;;;;;;;4.68;2.05;;;2.10;99.90;;;;;;15251834;23;20026;-85
2023/11/25 21:32:43;;;;;;;5.20;2.13;;;2.10;99.90;;;;;;15246258;23;20422;-85
2023/11/25 21:38:45;;;;;;;3.03;2.17;;;2.00;99.90;;;;;;15249581;23;20018;-86
2023/11/25 21:44:47;;;;;;;4.15;2.17;;;1.90;99.90;;;;;;15252687;23;20458;-82
2023/11/25 21:50:49;;;;;;;4.00;2.30;;;1.80;99.90;;;;;;15252142;23;20123;-82
2023/11/25 21:56:50;;;;;;;3.97;2.45;;;2.10;99.90;;;;;;15247102;23;20107;-82
2023/11/25 22:02:55;;;;;;;6.77;2.60;;;2.20;99.90;;;;;;15238633;23;20036;-82
2023/11/25 22:08:58;;;;;;;3.92;2.40;;;2.00;99.90;;;;;;15248634;23;20249;-82
2023/11/25 22:15:00;;;;;;;5.28;2.80;;;2.10;99.90;;;;;;15250401;23;20102;-82
2023/11/25 22:21:02;;;;;;;3.80;2.58;;;2.00;99.90;;;;;;15248317;23;20029;-82
2023/11/25 22:27:22;;;;;;;6.57;3.22;;;2.00;99.90;;;;;;15249927;23;20033;-82
2023/11/25 22:33:23;;;;;;;6.55;3.35;;;1.70;99.90;;;;;;15252164;23;20025;-82
2023/11/25 22:39:26;;;;;;;5.05;2.80;;;1.60;99.90;;;;;;15248782;23;20067;-81
2023/11/25 22:45:27;;;;;;;4.32;2.80;;;1.30;99.90;;;;;;15248389;23;20026;-82
2023/11/25 22:51:29;;;;;;;5.50;3.08;;;1.00;99.90;;;;;;15250426;23;20025;-82
2023/11/25 22:57:31;;;;;;;4.60;2.80;;;0.90;99.90;;;;;;15251769;23;20033;-82
2023/11/25 23:03:33;;;;;;;7.65;2.90;;;0.80;99.90;;;;;;15249175;23;20114;-83
2023/11/25 23:09:35;;;;;;;6.82;3.08;;;0.80;99.90;;;;;;15247463;23;20029;-83
2023/11/25 23:15:37;;;;;;;5.63;2.88;;;0.70;99.90;;;;;;15251142;23;20103;-82
2023/11/25 23:21:39;;;;;;;5.45;2.85;;;0.90;99.90;;;;;;15240933;23;20036;-82
2023/11/25 23:27:41;;;;;;;4.47;2.88;;;1.00;99.90;;;;;;15248098;23;20186;-82
2023/11/25 23:33:43;;;;;;;7.03;3.10;;;0.80;99.90;;;;;;15244128;23;20363;-82
2023/11/25 23:39:45;;;;;;;4.38;2.90;;;0.70;99.90;;;;;;15249973;23;20442;-82
2023/11/25 23:45:47;;;;;;;9.68;2.85;;;0.70;99.90;;;;;;15251095;23;20025;-82
2023/11/25 23:51:49;;;;;;;4.30;2.63;;;0.60;99.90;;;;;;15251730;23;20022;-82
2023/11/25 23:57:51;;;;;;;3.17;2.70;;;0.50;99.90;;;;;;15250267;23;20458;-82
